createdAt,value
2019-06-27T00:00:11.528Z,16.60
2019-06-27T00:02:40.418Z,16.50
2019-06-27T00:05:09.268Z,16.60
2019-06-27T00:07:38.031Z,16.50
2019-06-27T00:10:08.303Z,16.40
2019-06-27T00:12:37.144Z,16.50
2019-06-27T00:15:05.957Z,16.50
2019-06-27T00:17:34.826Z,16.60
2019-06-27T00:20:03.650Z,16.60
2019-06-27T00:22:32.621Z,16.60
2019-06-27T00:25:01.358Z,16.60
2019-06-27T00:27:30.381Z,16.50
2019-06-27T00:29:59.140Z,16.50
2019-06-27T00:32:28.062Z,16.60
2019-06-27T00:34:56.890Z,16.60
2019-06-27T00:37:25.673Z,16.50
2019-06-27T00:39:54.416Z,16.50
2019-06-27T00:42:23.233Z,16.60
2019-06-27T00:44:52.085Z,16.50
2019-06-27T00:47:21.590Z,16.50
2019-06-27T00:49:50.393Z,16.60
2019-06-27T00:52:19.196Z,16.50
2019-06-27T00:54:47.943Z,16.50
2019-06-27T00:57:16.935Z,16.40
2019-06-27T00:59:45.690Z,16.40
2019-06-27T01:02:14.582Z,16.30
2019-06-27T01:04:43.474Z,16.30
2019-06-27T01:07:12.247Z,16.40
2019-06-27T01:09:41.039Z,16.40
2019-06-27T01:12:09.782Z,16.40
2019-06-27T01:14:38.625Z,16.40
2019-06-27T01:17:07.527Z,16.40
2019-06-27T01:19:36.283Z,16.50
2019-06-27T01:22:05.064Z,16.50
2019-06-27T01:24:33.904Z,16.40
2019-06-27T01:27:02.597Z,16.40
2019-06-27T01:29:31.303Z,16.50
2019-06-27T01:32:00.090Z,16.40
2019-06-27T01:34:28.855Z,16.40
2019-06-27T01:36:57.593Z,16.40
2019-06-27T01:39:26.476Z,16.40
2019-06-27T01:41:55.225Z,16.40
2019-06-27T01:44:40.583Z,16.30
2019-06-27T01:47:09.380Z,16.40
2019-06-27T01:49:38.108Z,16.30
2019-06-27T01:52:06.975Z,16.30
2019-06-27T01:54:35.738Z,16.30
2019-06-27T01:57:04.497Z,16.20
2019-06-27T01:59:33.287Z,16.10
2019-06-27T02:02:03.131Z,16.20
2019-06-27T02:04:31.943Z,16.20
2019-06-27T02:07:00.905Z,16.20
2019-06-27T02:09:33.351Z,16.00
2019-06-27T02:12:00.170Z,16.10
2019-06-27T02:14:29.229Z,16.10
2019-06-27T02:16:58.037Z,16.10
2019-06-27T02:19:26.866Z,16.00
2019-06-27T02:21:55.610Z,16.10
2019-06-27T02:24:24.351Z,16.10
2019-06-27T02:26:53.067Z,16.10
2019-06-27T02:29:21.810Z,16.10
2019-06-27T02:31:50.525Z,16.10
2019-06-27T02:34:19.737Z,16.00
2019-06-27T02:36:48.568Z,16.00
2019-06-27T02:39:17.455Z,16.10
2019-06-27T02:41:46.284Z,16.10
2019-06-27T02:44:15.032Z,16.10
2019-06-27T02:46:43.743Z,16.20
2019-06-27T02:49:12.461Z,16.20
2019-06-27T02:51:41.186Z,16.30
2019-06-27T02:54:09.927Z,16.30
2019-06-27T02:56:38.837Z,16.30
2019-06-27T02:59:07.662Z,16.30
2019-06-27T03:01:36.657Z,16.40
2019-06-27T03:04:05.981Z,16.30
2019-06-27T03:06:34.789Z,16.30
2019-06-27T03:09:04.444Z,16.40
2019-06-27T03:11:33.190Z,16.20
2019-06-27T03:14:02.252Z,16.10
2019-06-27T03:16:31.109Z,16.10
2019-06-27T03:19:00.068Z,16.10
2019-06-27T03:21:28.909Z,16.20
2019-06-27T03:23:57.642Z,16.20
2019-06-27T03:26:26.531Z,16.10
2019-06-27T03:28:55.311Z,16.10
2019-06-27T03:31:24.168Z,16.10
2019-06-27T03:33:53.014Z,16.20
2019-06-27T03:36:22.481Z,16.10
2019-06-27T03:38:51.782Z,16.10
2019-06-27T03:41:20.656Z,16.10
2019-06-27T03:43:49.485Z,16.10
2019-06-27T03:46:18.297Z,16.10
2019-06-27T03:48:47.019Z,16.10
2019-06-27T03:51:15.755Z,16.10
2019-06-27T03:53:44.608Z,16.10
2019-06-27T03:56:13.537Z,16.10
2019-06-27T03:58:42.376Z,16.00
2019-06-27T04:01:11.135Z,16.00
2019-06-27T04:03:42.876Z,16.00
2019-06-27T04:06:10.369Z,16.00
2019-06-27T04:08:39.155Z,15.90
2019-06-27T04:11:08.099Z,15.90
2019-06-27T04:13:36.930Z,15.90
2019-06-27T04:16:05.832Z,16.00
2019-06-27T04:18:34.573Z,16.00
2019-06-27T04:21:03.518Z,16.10
2019-06-27T04:23:32.439Z,15.90
2019-06-27T04:26:01.292Z,15.90
2019-06-27T04:28:30.085Z,15.90
2019-06-27T04:30:58.918Z,16.00
2019-06-27T04:33:27.721Z,15.90
2019-06-27T04:35:56.559Z,15.90
2019-06-27T04:38:25.365Z,16.00
2019-06-27T04:40:54.269Z,16.00
2019-06-27T04:43:23.338Z,15.90
2019-06-27T04:45:52.179Z,16.00
2019-06-27T04:48:20.888Z,16.00
2019-06-27T04:50:49.701Z,15.90
2019-06-27T04:53:18.592Z,15.90
2019-06-27T04:55:47.558Z,15.80
2019-06-27T04:58:16.296Z,15.80
2019-06-27T05:00:45.055Z,15.70
2019-06-27T05:03:13.841Z,15.70
2019-06-27T05:05:42.741Z,15.60
2019-06-27T05:08:14.337Z,15.40
2019-06-27T05:10:42.213Z,15.50
2019-06-27T05:13:10.984Z,15.60
2019-06-27T05:15:39.867Z,15.90
2019-06-27T05:18:08.585Z,15.70
2019-06-27T05:20:37.453Z,15.60
2019-06-27T05:23:06.313Z,15.60
2019-06-27T05:25:35.043Z,15.60
2019-06-27T05:28:03.800Z,15.60
2019-06-27T05:30:32.671Z,15.60
2019-06-27T05:33:01.531Z,16.00
2019-06-27T05:35:30.420Z,15.90
2019-06-27T05:37:59.425Z,15.70
2019-06-27T05:40:28.260Z,15.50
2019-06-27T05:42:57.062Z,15.40
2019-06-27T05:45:25.848Z,15.40
2019-06-27T05:47:54.770Z,15.50
2019-06-27T05:50:23.903Z,15.30
2019-06-27T05:52:52.776Z,15.30
2019-06-27T05:55:21.597Z,15.30
2019-06-27T05:57:50.506Z,15.20
2019-06-27T06:00:28.350Z,15.30
2019-06-27T06:02:50.093Z,15.10
2019-06-27T06:05:19.062Z,15.00
2019-06-27T06:07:47.924Z,15.00
2019-06-27T06:10:16.730Z,15.10
2019-06-27T06:12:45.624Z,15.00
2019-06-27T06:15:14.704Z,15.00
2019-06-27T06:17:43.511Z,15.30
2019-06-27T06:20:12.308Z,15.70
2019-06-27T06:22:41.043Z,15.50
2019-06-27T06:25:09.774Z,15.70
2019-06-27T06:27:38.535Z,15.60
2019-06-27T06:30:07.822Z,15.60
2019-06-27T06:32:36.612Z,15.70
2019-06-27T06:35:05.645Z,15.70
2019-06-27T06:37:34.406Z,15.80
2019-06-27T06:40:03.158Z,15.60
2019-06-27T06:42:31.955Z,15.60
2019-06-27T06:45:00.756Z,15.70
2019-06-27T06:47:29.670Z,15.80
2019-06-27T06:49:58.435Z,16.00
2019-06-27T06:52:27.293Z,15.80
2019-06-27T06:54:56.116Z,15.80
2019-06-27T06:57:28.442Z,15.90
2019-06-27T06:59:57.314Z,15.60
2019-06-27T07:02:26.253Z,15.80
2019-06-27T07:04:55.107Z,15.90
2019-06-27T07:07:23.923Z,15.90
2019-06-27T07:09:52.751Z,16.10
2019-06-27T07:12:22.270Z,16.20
2019-06-27T07:14:51.021Z,15.90
2019-06-27T07:17:19.930Z,16.00
2019-06-27T07:19:48.796Z,16.10
2019-06-27T07:22:17.587Z,16.10
2019-06-27T07:24:46.355Z,16.30
2019-06-27T07:27:15.191Z,16.50
2019-06-27T07:29:43.971Z,16.30
2019-06-27T07:32:12.687Z,16.20
2019-06-27T07:34:41.474Z,16.00
2019-06-27T07:37:10.334Z,16.10
2019-06-27T07:39:39.218Z,16.10
2019-06-27T07:42:08.139Z,16.30
2019-06-27T07:44:36.960Z,16.40
2019-06-27T07:47:05.761Z,16.40
2019-06-27T07:49:34.608Z,16.40
2019-06-27T07:52:03.630Z,16.60
2019-06-27T07:54:32.506Z,16.60
2019-06-27T07:57:01.290Z,16.40
2019-06-27T07:59:30.113Z,16.50
2019-06-27T08:01:58.851Z,16.50
2019-06-27T08:04:27.692Z,16.70
2019-06-27T08:06:56.405Z,16.70
2019-06-27T08:09:25.403Z,16.70
2019-06-27T08:11:54.201Z,16.90
2019-06-27T08:14:22.969Z,16.90
2019-06-27T08:16:51.887Z,17.00
2019-06-27T08:19:20.597Z,17.20
2019-06-27T08:21:49.366Z,17.20
2019-06-27T08:24:18.090Z,17.20
2019-06-27T08:26:47.070Z,17.20
2019-06-27T08:29:15.888Z,17.30
2019-06-27T08:31:51.335Z,17.30
2019-06-27T08:34:15.353Z,17.30
2019-06-27T08:36:44.147Z,17.40
2019-06-27T08:39:12.959Z,17.30
2019-06-27T08:41:41.684Z,17.40
2019-06-27T08:44:10.431Z,17.40
2019-06-27T08:46:39.341Z,17.40
2019-06-27T08:49:08.215Z,17.60
2019-06-27T08:51:37.056Z,17.80
2019-06-27T08:54:05.832Z,17.80
2019-06-27T08:56:34.568Z,17.90
2019-06-27T08:59:03.777Z,17.90
2019-06-27T09:01:32.605Z,17.70
2019-06-27T09:04:01.426Z,18.00
2019-06-27T09:06:30.161Z,18.10
2019-06-27T09:08:58.999Z,18.00
2019-06-27T09:11:28.127Z,18.10
2019-06-27T09:13:56.859Z,18.30
2019-06-27T09:16:25.847Z,18.50
2019-06-27T09:18:54.631Z,18.50
2019-06-27T09:21:23.499Z,18.60
2019-06-27T09:23:52.233Z,18.60
2019-06-27T09:26:20.997Z,18.40
2019-06-27T09:28:49.918Z,18.50
2019-06-27T09:31:18.844Z,18.80
2019-06-27T09:33:47.635Z,18.80
2019-06-27T09:36:16.369Z,18.90
2019-06-27T09:38:45.155Z,18.90
2019-06-27T09:41:14.007Z,18.90
2019-06-27T09:43:42.842Z,18.90
2019-06-27T09:46:11.714Z,18.80
2019-06-27T09:48:40.535Z,19.00
2019-06-27T09:51:09.286Z,19.30
2019-06-27T09:53:38.160Z,19.20
2019-06-27T09:56:07.083Z,19.40
2019-06-27T09:58:35.964Z,19.30
2019-06-27T10:01:05.989Z,19.50
2019-06-27T10:03:35.279Z,19.70
2019-06-27T10:06:03.992Z,19.80
2019-06-27T10:08:32.778Z,19.60
2019-06-27T10:11:01.530Z,19.50
2019-06-27T10:13:30.445Z,19.70
2019-06-27T10:15:59.221Z,19.70
2019-06-27T10:18:28.099Z,19.70
2019-06-27T10:20:56.902Z,19.80
2019-06-27T10:23:25.765Z,19.90
2019-06-27T10:25:54.546Z,20.00
2019-06-27T10:28:23.260Z,20.00
2019-06-27T10:30:52.098Z,20.10
2019-06-27T10:33:20.850Z,20.20
2019-06-27T10:35:49.618Z,20.20
2019-06-27T10:38:18.464Z,20.30
2019-06-27T10:40:47.216Z,20.10
2019-06-27T10:43:16.033Z,20.30
2019-06-27T10:45:44.836Z,20.40
2019-06-27T10:48:13.582Z,20.60
2019-06-27T10:50:42.450Z,20.60
2019-06-27T10:53:11.350Z,20.60
2019-06-27T10:55:40.158Z,20.70
2019-06-27T10:58:08.912Z,20.80
2019-06-27T11:00:37.912Z,20.80
2019-06-27T11:03:15.438Z,20.60
2019-06-27T11:05:37.115Z,20.40
2019-06-27T11:08:05.912Z,20.60
2019-06-27T11:10:34.741Z,20.80
2019-06-27T11:13:03.578Z,20.60
2019-06-27T11:15:32.429Z,20.80
2019-06-27T11:18:01.291Z,21.00
2019-06-27T11:20:30.098Z,21.00
2019-06-27T11:22:58.878Z,21.10
2019-06-27T11:25:27.618Z,21.20
2019-06-27T11:27:56.620Z,21.20
2019-06-27T11:30:25.407Z,21.30
2019-06-27T11:32:54.291Z,21.40
2019-06-27T11:35:23.444Z,21.20
2019-06-27T11:37:52.203Z,21.40
2019-06-27T11:40:22.702Z,21.50
2019-06-27T11:42:52.035Z,21.70
2019-06-27T11:45:20.794Z,22.00
2019-06-27T11:47:49.727Z,22.20
2019-06-27T11:50:18.550Z,22.20
2019-06-27T11:52:47.711Z,22.20
2019-06-27T11:55:16.623Z,22.30
2019-06-27T11:57:45.421Z,22.20
2019-06-27T12:00:14.217Z,22.20
2019-06-27T12:02:43.047Z,22.20
2019-06-27T12:05:12.039Z,22.20
2019-06-27T12:07:40.811Z,22.40
2019-06-27T12:10:09.631Z,22.40
2019-06-27T12:12:38.494Z,22.40
2019-06-27T12:15:07.419Z,22.50
2019-06-27T12:17:36.228Z,22.80
2019-06-27T12:20:05.961Z,23.00
2019-06-27T12:22:34.973Z,22.50
2019-06-27T12:25:04.203Z,22.70
2019-06-27T12:27:33.209Z,23.00
2019-06-27T12:30:02.075Z,23.00
2019-06-27T12:32:30.802Z,22.90
2019-06-27T12:34:59.538Z,23.10
2019-06-27T12:37:28.321Z,23.20
2019-06-27T12:39:57.188Z,23.30
2019-06-27T12:42:32.530Z,23.30
2019-06-27T12:44:56.458Z,23.40
2019-06-27T12:47:25.219Z,23.40
2019-06-27T12:50:02.373Z,23.30
2019-06-27T12:52:24.543Z,23.50
2019-06-27T12:54:53.472Z,23.40
2019-06-27T12:57:22.433Z,23.60
2019-06-27T12:59:51.316Z,23.80
2019-06-27T13:02:20.165Z,23.80
2019-06-27T13:04:49.093Z,24.10
2019-06-27T13:07:17.950Z,24.20
2019-06-27T13:09:47.004Z,23.70
2019-06-27T13:12:15.855Z,23.70
2019-06-27T13:14:44.740Z,23.80
2019-06-27T13:17:13.540Z,23.90
2019-06-27T13:19:42.521Z,23.90
2019-06-27T13:22:11.371Z,24.30
2019-06-27T13:24:40.320Z,24.40
2019-06-27T13:27:09.210Z,24.20
2019-06-27T13:29:38.189Z,24.30
2019-06-27T13:32:06.952Z,24.30
2019-06-27T13:34:40.348Z,24.50
2019-06-27T13:37:06.489Z,24.60
2019-06-27T13:39:35.329Z,24.70
2019-06-27T13:42:04.087Z,24.50
2019-06-27T13:44:32.909Z,24.60
2019-06-27T13:47:01.640Z,24.70
2019-06-27T13:49:30.476Z,24.60
2019-06-27T13:51:59.337Z,24.70
2019-06-27T13:54:28.462Z,25.00
2019-06-27T13:56:57.364Z,25.10
2019-06-27T13:59:26.080Z,24.90
2019-06-27T14:01:54.780Z,24.60
2019-06-27T14:04:24.509Z,24.80
2019-06-27T14:06:53.550Z,25.10
2019-06-27T14:09:23.863Z,25.10
2019-06-27T14:11:53.000Z,24.90
2019-06-27T14:14:21.763Z,25.00
2019-06-27T14:16:50.647Z,25.00
2019-06-27T14:19:19.538Z,25.10
2019-06-27T14:21:49.416Z,25.00
2019-06-27T14:24:18.228Z,24.70
2019-06-27T14:26:47.029Z,24.60
2019-06-27T14:29:15.811Z,24.90
2019-06-27T14:31:44.716Z,25.00
2019-06-27T14:34:13.524Z,25.10
2019-06-27T14:36:42.344Z,25.10
2019-06-27T14:39:11.222Z,25.10
2019-06-27T14:41:40.077Z,25.00
2019-06-27T14:44:08.934Z,24.90
2019-06-27T14:46:37.708Z,24.90
2019-06-27T14:49:06.545Z,24.90
2019-06-27T14:51:35.420Z,24.90
2019-06-27T14:54:04.460Z,24.40
2019-06-27T14:56:33.293Z,24.70
2019-06-27T14:59:02.136Z,24.60
2019-06-27T15:01:31.284Z,24.60
2019-06-27T15:04:00.065Z,25.00
2019-06-27T15:06:28.813Z,24.90
2019-06-27T15:08:57.570Z,24.70
2019-06-27T15:11:26.497Z,24.80
2019-06-27T15:13:55.456Z,24.90
2019-06-27T15:16:24.554Z,24.90
2019-06-27T15:18:56.259Z,25.20
2019-06-27T15:21:25.191Z,25.20
2019-06-27T15:23:55.589Z,24.90
2019-06-27T15:26:24.364Z,24.70
2019-06-27T15:28:53.319Z,24.50
2019-06-27T15:31:22.564Z,24.70
2019-06-27T15:33:51.665Z,24.80
2019-06-27T15:36:20.554Z,24.70
2019-06-27T15:38:49.302Z,24.80
2019-06-27T15:41:18.238Z,24.30
2019-06-27T15:43:47.059Z,24.00
2019-06-27T15:46:15.963Z,24.30
2019-06-27T15:48:44.739Z,24.50
2019-06-27T15:51:13.518Z,24.50
2019-06-27T15:53:42.318Z,24.70
2019-06-27T15:56:11.106Z,24.80
2019-06-27T15:58:39.856Z,24.80
2019-06-27T16:01:08.704Z,24.60
2019-06-27T16:03:37.561Z,24.30
2019-06-27T16:06:09.774Z,24.20
2019-06-27T16:08:37.087Z,24.10
2019-06-27T16:11:05.847Z,24.00
2019-06-27T16:13:34.656Z,24.00
2019-06-27T16:16:03.930Z,24.10
2019-06-27T16:18:32.759Z,24.30
2019-06-27T16:21:01.763Z,24.20
2019-06-27T16:23:30.826Z,24.20
2019-06-27T16:25:59.727Z,24.80
2019-06-27T16:28:28.829Z,24.60
2019-06-27T16:30:57.650Z,24.40
2019-06-27T16:33:26.399Z,24.30
2019-06-27T16:35:55.272Z,24.60
2019-06-27T16:38:24.129Z,24.50
2019-06-27T16:40:53.046Z,24.20
2019-06-27T16:43:21.866Z,24.00
2019-06-27T16:45:50.620Z,23.80
2019-06-27T16:48:19.523Z,23.80
2019-06-27T16:50:48.287Z,24.00
2019-06-27T16:53:17.069Z,24.10
2019-06-27T16:55:45.868Z,23.80
2019-06-27T16:58:14.749Z,24.10
2019-06-27T17:00:44.820Z,24.30
2019-06-27T17:03:13.618Z,24.10
2019-06-27T17:05:42.876Z,24.00
2019-06-27T17:08:11.731Z,23.80
2019-06-27T17:10:40.458Z,23.80
2019-06-27T17:13:09.219Z,23.70
2019-06-27T17:15:38.143Z,24.00
2019-06-27T17:18:06.916Z,24.00
2019-06-27T17:20:35.685Z,24.50
2019-06-27T17:23:05.570Z,24.10
2019-06-27T17:25:34.451Z,23.90
2019-06-27T17:28:03.329Z,23.80
2019-06-27T17:30:32.236Z,23.50
2019-06-27T17:33:01.160Z,23.70
2019-06-27T17:35:30.138Z,23.60
2019-06-27T17:37:59.083Z,23.30
2019-06-27T17:40:28.369Z,23.50
2019-06-27T17:42:57.463Z,23.70
2019-06-27T17:45:26.635Z,23.60
2019-06-27T17:47:55.936Z,23.90
2019-06-27T17:50:25.002Z,23.40
2019-06-27T17:52:54.274Z,23.40
2019-06-27T17:55:23.086Z,23.00
2019-06-27T17:57:52.211Z,23.10
2019-06-27T18:00:20.972Z,22.90
2019-06-27T18:02:49.755Z,22.90
2019-06-27T18:05:18.839Z,23.00
2019-06-27T18:07:47.963Z,23.20
2019-06-27T18:10:17.015Z,23.20
2019-06-27T18:12:46.071Z,22.80
2019-06-27T18:15:15.428Z,22.80
2019-06-27T18:17:44.339Z,23.20
2019-06-27T18:20:13.341Z,22.90
2019-06-27T18:22:42.244Z,23.00
2019-06-27T18:25:11.289Z,23.00
2019-06-27T18:27:40.054Z,23.10
2019-06-27T18:30:08.784Z,23.00
2019-06-27T18:32:37.713Z,23.30
2019-06-27T18:35:06.868Z,23.40
2019-06-27T18:37:35.838Z,23.40
2019-06-27T18:40:04.977Z,23.30
2019-06-27T18:42:33.898Z,23.80
2019-06-27T18:45:02.728Z,23.90
2019-06-27T18:47:31.513Z,23.40
2019-06-27T18:50:00.661Z,23.10
2019-06-27T18:52:29.511Z,23.10
2019-06-27T18:54:58.312Z,23.00
2019-06-27T18:57:27.155Z,22.70
2019-06-27T18:59:56.020Z,23.10
2019-06-27T19:02:24.826Z,22.80
2019-06-27T19:04:53.705Z,22.20
2019-06-27T19:07:22.994Z,21.90
2019-06-27T19:09:52.081Z,21.30
2019-06-27T19:12:20.949Z,21.00
2019-06-27T19:14:49.841Z,20.70
2019-06-27T19:17:18.745Z,20.60
2019-06-27T19:19:49.972Z,20.40
2019-06-27T19:22:36.539Z,20.30
2019-06-27T19:25:10.587Z,20.10
2019-06-27T19:27:39.556Z,19.90
2019-06-27T19:30:08.618Z,19.80
2019-06-27T19:32:37.826Z,19.60
2019-06-27T19:35:07.162Z,19.40
2019-06-27T19:37:36.131Z,19.40
2019-06-27T19:40:05.919Z,19.20
2019-06-27T19:42:34.678Z,19.10
2019-06-27T19:45:03.570Z,19.00
2019-06-27T19:47:32.348Z,18.90
2019-06-27T19:50:01.233Z,18.60
2019-06-27T19:52:30.009Z,18.60
2019-06-27T19:54:58.787Z,18.40
2019-06-27T19:57:27.655Z,18.40
2019-06-27T19:59:56.475Z,18.20
2019-06-27T20:02:25.278Z,18.20
2019-06-27T20:04:54.014Z,18.00
2019-06-27T20:07:22.827Z,17.90
2019-06-27T20:09:51.711Z,17.90
2019-06-27T20:12:20.444Z,17.80
2019-06-27T20:14:49.259Z,17.90
2019-06-27T20:17:18.006Z,17.70
2019-06-27T20:19:46.820Z,17.60
2019-06-27T20:22:15.658Z,17.50
2019-06-27T20:24:44.626Z,17.30
2019-06-27T20:27:13.475Z,17.30
2019-06-27T20:29:42.408Z,17.20
2019-06-27T20:32:11.272Z,17.20
2019-06-27T20:34:40.261Z,17.10
2019-06-27T20:37:09.416Z,17.10
2019-06-27T20:39:38.515Z,17.10
2019-06-27T20:42:07.617Z,17.00
2019-06-27T20:44:36.460Z,17.00
2019-06-27T20:47:05.338Z,17.00
2019-06-27T20:49:34.249Z,17.00
2019-06-27T20:52:03.099Z,16.90
2019-06-27T20:54:32.111Z,17.00
2019-06-27T20:57:00.993Z,16.80
2019-06-27T20:59:29.901Z,16.80
2019-06-27T21:01:58.812Z,16.80
2019-06-27T21:04:27.924Z,16.70
2019-06-27T21:06:57.024Z,16.60
2019-06-27T21:09:26.069Z,16.50
2019-06-27T21:11:55.318Z,16.50
2019-06-27T21:14:24.350Z,16.40
2019-06-27T21:16:53.241Z,16.30
2019-06-27T21:19:22.176Z,16.40
2019-06-27T21:21:50.925Z,16.40
2019-06-27T21:24:19.770Z,16.30
2019-06-27T21:26:48.767Z,16.30
2019-06-27T21:29:18.130Z,16.30
2019-06-27T21:31:47.631Z,16.20
2019-06-27T21:34:17.022Z,16.20
2019-06-27T21:36:46.509Z,16.10
2019-06-27T21:39:16.051Z,16.00
2019-06-27T21:41:45.280Z,16.00
2019-06-27T21:44:14.400Z,16.00
2019-06-27T21:46:43.450Z,16.00
2019-06-27T21:49:12.475Z,15.90
2019-06-27T21:51:41.388Z,16.00
2019-06-27T21:54:10.452Z,15.90
2019-06-27T21:56:39.357Z,15.80
2019-06-27T21:59:08.262Z,15.80
2019-06-27T22:01:38.980Z,15.80
2019-06-27T22:04:07.874Z,15.80
2019-06-27T22:06:36.680Z,15.70
2019-06-27T22:09:20.070Z,15.70
2019-06-27T22:11:37.585Z,15.70
2019-06-27T22:14:06.566Z,15.60
2019-06-27T22:16:35.337Z,15.60
2019-06-27T22:19:04.797Z,15.60
2019-06-27T22:21:33.729Z,15.60
2019-06-27T22:24:03.293Z,15.60
2019-06-27T22:26:31.997Z,15.50
2019-06-27T22:29:00.731Z,15.50
2019-06-27T22:31:29.494Z,15.40
2019-06-27T22:33:58.231Z,15.30
2019-06-27T22:36:26.986Z,15.30
2019-06-27T22:39:13.431Z,15.30
2019-06-27T22:42:00.067Z,15.30
2019-06-27T22:44:46.932Z,15.20
2019-06-27T22:47:33.872Z,15.20
2019-06-27T22:50:05.841Z,15.20
2019-06-27T22:52:52.314Z,15.20
2019-06-27T22:55:23.213Z,15.20
2019-06-27T22:57:51.989Z,15.10
2019-06-27T23:00:21.067Z,15.10
2019-06-27T23:02:49.801Z,15.10
2019-06-27T23:05:18.548Z,15.10
2019-06-27T23:07:47.334Z,15.10
2019-06-27T23:10:16.122Z,15.10
2019-06-27T23:12:44.914Z,15.10
2019-06-27T23:15:13.764Z,15.10
2019-06-27T23:17:42.528Z,15.10
2019-06-27T23:20:11.344Z,15.00
2019-06-27T23:22:40.042Z,15.00
2019-06-27T23:25:08.748Z,15.00
2019-06-27T23:27:37.528Z,15.00
2019-06-27T23:30:06.959Z,15.00
2019-06-27T23:32:35.665Z,14.90
2019-06-27T23:35:04.494Z,14.90
2019-06-27T23:37:33.600Z,15.00
2019-06-27T23:40:13.610Z,14.90
2019-06-27T23:42:33.105Z,14.90
2019-06-27T23:45:01.901Z,14.80
2019-06-27T23:47:30.635Z,14.80
2019-06-27T23:49:59.348Z,14.80
2019-06-27T23:52:28.289Z,14.80
2019-06-27T23:54:57.065Z,14.80
2019-06-27T23:57:25.846Z,14.80
2019-06-27T23:59:54.582Z,14.80
